Time;durP1;ratioP1;P1;durP2;ratioP2;P2;SDS_P1;SDS_P2;PMS_P1;PMS_P2;Temp;Humidity;BMP_temperature;BMP_pressure;BME280_temperature;BME280_humidity;BME280_pressure;Samples;Min_cycle;Max_cycle;Signal;HPM_P1;HPM_P2
2022/08/25 00:00:09;;;;;;;;;;;15.00;99.90;;;;;;5071422;28;19908;-74
2022/08/25 00:02:35;;;;;;;;;;;15.00;99.90;;;;;;5071468;28;19913;-74
2022/08/25 00:05:00;;;;;;;;;;;14.80;99.90;;;;;;5071257;28;19932;-74
2022/08/25 00:07:26;;;;;;;;;;;14.90;99.90;;;;;;5071608;28;20324;-76
2022/08/25 00:09:51;;;;;;;;;;;14.90;99.90;;;;;;5071280;28;19920;-78
2022/08/25 00:12:17;;;;;;;;;;;14.70;99.90;;;;;;5071513;28;19912;-73
2022/08/25 00:14:42;;;;;;;;;;;14.50;99.90;;;;;;5071928;28;19909;-74
2022/08/25 00:17:08;;;;;;;;;;;14.60;99.90;;;;;;5071413;28;19908;-75
2022/08/25 00:19:34;;;;;;;;;;;14.70;99.90;;;;;;5071153;28;19955;-73
2022/08/25 00:22:01;;;;;;;;;;;14.70;99.90;;;;;;5071533;28;19916;-78
2022/08/25 00:24:26;;;;;;;;;;;14.60;99.90;;;;;;5071353;28;19919;-74
2022/08/25 00:26:53;;;;;;;;;;;14.40;99.90;;;;;;5069968;28;20005;-75
2022/08/25 00:29:19;;;;;;;;;;;14.20;99.90;;;;;;5071091;28;19908;-74
2022/08/25 00:31:46;;;;;;;;;;;14.20;99.90;;;;;;5071012;28;20447;-74
2022/08/25 00:34:15;;;;;;;;;;;14.10;99.90;;;;;;5070907;28;19966;-74
2022/08/25 00:36:40;;;;;;;;;;;14.10;99.90;;;;;;5069542;28;20354;-74
2022/08/25 00:39:07;;;;;;;;;;;14.20;99.90;;;;;;5070929;28;19909;-74
2022/08/25 00:41:34;;;;;;;;;;;14.30;99.90;;;;;;5070869;28;19932;-74
2022/08/25 00:44:01;;;;;;;;;;;14.30;99.90;;;;;;5070798;28;19955;-74
2022/08/25 00:46:29;;;;;;;;;;;14.40;99.90;;;;;;5070963;28;19908;-74
2022/08/25 00:49:05;;;;;;;;;;;14.30;99.90;;;;;;5069120;28;19915;-72
2022/08/25 00:51:36;;;;;;;;;;;14.20;99.90;;;;;;5070852;28;19913;-74
2022/08/25 00:54:03;;;;;;;;;;;14.20;99.90;;;;;;5073742;28;19916;-74
2022/08/25 00:56:28;;;;;;;;;;;14.20;99.90;;;;;;5074746;28;20152;-74
2022/08/25 00:58:55;;;;;;;;;;;14.20;99.90;;;;;;5074615;28;20427;-74
2022/08/25 01:01:21;;;;;;;;;;;14.20;99.90;;;;;;5074419;28;19913;-73
2022/08/25 01:03:46;;;;;;;;;;;14.20;99.90;;;;;;5074148;28;20283;-74
2022/08/25 01:06:12;;;;;;;;;;;14.20;99.90;;;;;;5074351;28;19999;-74
2022/08/25 01:08:38;;;;;;;;;;;14.10;99.90;;;;;;5074491;28;19915;-74
2022/08/25 01:11:06;;;;;;;;;;;14.10;99.90;;;;;;5074426;28;19916;-74
2022/08/25 01:13:37;;;;;;;;;;;14.00;99.90;;;;;;5067274;28;20066;-74
2022/08/25 01:16:03;;;;;;;;;;;14.00;99.90;;;;;;5074141;28;19909;-74
2022/08/25 01:18:40;;;;;;;;;;;13.90;99.90;;;;;;5074516;28;19913;-74
2022/08/25 01:21:06;;;;;;;;;;;13.90;99.90;;;;;;5073969;28;19920;-74
2022/08/25 01:23:31;;;;;;;;;;;14.00;99.90;;;;;;5074081;28;19954;-74
2022/08/25 01:26:06;;;;;;;;;;;14.00;99.90;;;;;;5074431;28;19944;-74
2022/08/25 01:28:32;;;;;;;;;;;14.00;99.90;;;;;;5074395;28;20422;-74
2022/08/25 01:30:58;;;;;;;;;;;13.90;99.90;;;;;;5073887;28;20328;-74
2022/08/25 01:33:23;;;;;;;;;;;13.90;99.90;;;;;;5075168;28;19909;-73
2022/08/25 01:35:49;;;;;;;;;;;13.90;99.90;;;;;;5075171;28;20381;-74
2022/08/25 01:38:15;;;;;;;;;;;13.90;99.90;;;;;;5074111;28;19954;-74
2022/08/25 01:40:41;;;;;;;;;;;13.90;99.90;;;;;;5074085;28;20423;-74
2022/08/25 01:43:10;;;;;;;;;;;13.90;99.90;;;;;;5073819;28;19935;-74
2022/08/25 01:45:37;;;;;;;;;;;13.90;99.90;;;;;;5072317;28;19920;-73
2022/08/25 01:48:03;;;;;;;;;;;13.80;99.90;;;;;;5070915;28;19908;-74
2022/08/25 01:50:29;;;;;;;;;;;13.80;99.90;;;;;;5073679;28;19919;-74
2022/08/25 01:52:57;;;;;;;;;;;13.70;99.90;;;;;;5073674;28;19913;-74
2022/08/25 01:55:23;;;;;;;;;;;13.70;99.90;;;;;;5073845;28;19935;-74
2022/08/25 01:57:48;;;;;;;;;;;13.60;99.90;;;;;;5073806;28;20389;-74
2022/08/25 02:00:15;;;;;;;;;;;13.60;99.90;;;;;;5072597;28;19919;-74
2022/08/25 02:02:41;;;;;;;;;;;13.60;99.90;;;;;;5073650;28;19908;-74
2022/08/25 02:05:07;;;;;;;;;;;13.60;99.90;;;;;;5073229;28;20325;-74
2022/08/25 02:07:33;;;;;;;;;;;13.60;99.90;;;;;;5073697;28;20285;-74
2022/08/25 02:09:59;;;;;;;;;;;13.50;99.90;;;;;;5073411;28;19923;-74
2022/08/25 02:12:24;;;;;;;;;;;13.50;99.90;;;;;;5073193;28;19915;-74
2022/08/25 02:14:50;;;;;;;;;;;13.50;99.90;;;;;;5073139;28;19912;-74
2022/08/25 02:17:16;;;;;;;;;;;13.50;99.90;;;;;;5067933;28;19917;-74
2022/08/25 02:19:41;;;;;;;;;;;13.50;99.90;;;;;;5072787;28;19912;-74
2022/08/25 02:22:07;;;;;;;;;;;13.50;99.90;;;;;;5073070;28;19958;-74
2022/08/25 02:24:33;;;;;;;;;;;13.50;99.90;;;;;;5073247;28;19915;-74
2022/08/25 02:26:59;;;;;;;;;;;13.50;99.90;;;;;;5071766;28;19909;-74
2022/08/25 02:29:25;;;;;;;;;;;13.40;99.90;;;;;;5072978;28;20341;-74
2022/08/25 02:31:50;;;;;;;;;;;13.40;99.90;;;;;;5072649;28;19912;-74
2022/08/25 02:34:16;;;;;;;;;;;13.40;99.90;;;;;;5072673;28;20007;-75
2022/08/25 02:36:42;;;;;;;;;;;13.30;99.90;;;;;;5073044;28;19969;-75
2022/08/25 02:39:08;;;;;;;;;;;13.20;99.90;;;;;;5072879;28;19909;-75
2022/08/25 02:41:33;;;;;;;;;;;13.30;99.90;;;;;;5072595;28;19969;-75
2022/08/25 02:43:59;;;;;;;;;;;13.30;99.90;;;;;;5072459;28;19912;-74
2022/08/25 02:46:25;;;;;;;;;;;13.30;99.90;;;;;;5071548;28;19913;-74
2022/08/25 02:48:51;;;;;;;;;;;13.30;99.90;;;;;;5064406;28;20392;-75
2022/08/25 02:51:18;;;;;;;;;;;13.30;99.90;;;;;;5072553;28;19909;-74
2022/08/25 02:53:45;;;;;;;;;;;13.30;99.90;;;;;;5072448;28;19934;-74
2022/08/25 02:56:11;;;;;;;;;;;13.30;99.90;;;;;;5072507;28;19978;-74
2022/08/25 02:58:38;;;;;;;;;;;13.30;99.90;;;;;;5072574;28;19908;-75
2022/08/25 03:01:04;;;;;;;;;;;13.30;99.90;;;;;;5072213;28;19942;-75
2022/08/25 03:03:30;;;;;;;;;;;13.30;99.90;;;;;;5072128;28;19912;-74
2022/08/25 03:05:56;;;;;;;;;;;13.30;99.90;;;;;;5072413;28;19919;-74
2022/08/25 03:08:22;;;;;;;;;;;13.30;99.90;;;;;;5072395;28;20358;-74
2022/08/25 03:10:47;;;;;;;;;;;13.30;99.90;;;;;;5071951;28;19963;-74
2022/08/25 03:13:13;;;;;;;;;;;13.20;99.90;;;;;;5071727;28;19924;-74
2022/08/25 03:15:41;;;;;;;;;;;13.30;99.90;;;;;;5071926;28;19909;-74
2022/08/25 03:18:06;;;;;;;;;;;13.30;99.90;;;;;;5072006;28;19912;-74
2022/08/25 03:20:34;;;;;;;;;;;13.20;99.90;;;;;;5072012;28;20250;-74
2022/08/25 03:23:00;;;;;;;;;;;13.00;99.90;;;;;;5070682;28;20555;-74
2022/08/25 03:28:10;;;;;;;;;;;13.00;99.90;;;;;;5071859;28;20273;-73
2022/08/25 03:30:35;;;;;;;;;;;13.10;99.90;;;;;;5071931;28;19912;-74
2022/08/25 03:33:01;;;;;;;;;;;13.10;99.90;;;;;;5072198;28;19908;-74
2022/08/25 03:35:26;;;;;;;;;;;13.10;99.90;;;;;;5071833;28;20350;-74
2022/08/25 03:37:56;;;;;;;;;;;13.20;99.90;;;;;;5071712;28;19913;-74
2022/08/25 03:40:22;;;;;;;;;;;13.20;99.90;;;;;;5071686;28;20361;-74
2022/08/25 03:42:47;;;;;;;;;;;13.20;99.90;;;;;;5070378;28;19908;-74
2022/08/25 03:45:15;;;;;;;;;;;13.30;99.90;;;;;;5071497;28;20433;-74
2022/08/25 03:47:41;;;;;;;;;;;13.20;99.90;;;;;;5063370;28;19917;-74
2022/08/25 03:50:07;;;;;;;;;;;13.10;99.90;;;;;;5071451;28;20292;-74
2022/08/25 03:52:33;;;;;;;;;;;13.00;99.90;;;;;;5069935;28;19908;-74
2022/08/25 03:54:59;;;;;;;;;;;12.80;99.90;;;;;;5071335;28;20343;-74
2022/08/25 03:57:25;;;;;;;;;;;12.80;99.90;;;;;;5071727;28;19954;-74
2022/08/25 03:59:51;;;;;;;;;;;12.90;99.90;;;;;;5071592;28;19912;-75
2022/08/25 04:02:17;;;;;;;;;;;13.00;99.90;;;;;;5072084;28;20176;-75
2022/08/25 04:04:42;;;;;;;;;;;13.00;99.90;;;;;;5070183;28;20437;-74
2022/08/25 04:07:08;;;;;;;;;;;13.10;99.90;;;;;;5071559;28;19908;-74
2022/08/25 04:09:34;;;;;;;;;;;12.90;99.90;;;;;;5071103;28;19920;-74
2022/08/25 04:11:59;;;;;;;;;;;12.90;99.90;;;;;;5071419;28;20358;-74
2022/08/25 04:14:25;;;;;;;;;;;13.00;99.90;;;;;;5071435;28;19909;-73
2022/08/25 04:16:51;;;;;;;;;;;13.00;99.90;;;;;;5070011;28;19909;-74
2022/08/25 04:19:17;;;;;;;;;;;12.90;99.90;;;;;;5071110;28;19909;-74
2022/08/25 04:21:43;;;;;;;;;;;13.00;99.90;;;;;;5070980;28;19918;-74
2022/08/25 04:24:09;;;;;;;;;;;12.90;99.90;;;;;;5071092;28;19912;-74
2022/08/25 04:26:36;;;;;;;;;;;13.00;99.90;;;;;;5072359;28;19940;-74
2022/08/25 04:29:03;;;;;;;;;;;12.90;99.90;;;;;;5074104;28;19913;-74
2022/08/25 04:31:29;;;;;;;;;;;12.90;99.90;;;;;;5074014;28;19909;-74
2022/08/25 04:33:55;;;;;;;;;;;12.90;99.90;;;;;;5075187;28;20350;-75
2022/08/25 04:36:21;;;;;;;;;;;12.90;99.90;;;;;;5075189;28;19908;-74
2022/08/25 04:38:48;;;;;;;;;;;13.00;99.90;;;;;;5075195;28;19981;-74
2022/08/25 04:41:14;;;;;;;;;;;12.90;99.90;;;;;;5068648;28;19913;-74
2022/08/25 04:43:41;;;;;;;;;;;12.90;99.90;;;;;;5060359;28;19999;-74
2022/08/25 04:46:11;;;;;;;;;;;12.90;99.90;;;;;;5068712;28;20350;-74
2022/08/25 04:48:38;;;;;;;;;;;12.80;99.90;;;;;;5068486;28;20289;-74
2022/08/25 04:51:05;;;;;;;;;;;12.80;99.90;;;;;;5074638;28;19912;-74
2022/08/25 04:53:31;;;;;;;;;;;12.90;99.90;;;;;;5074533;28;19909;-75
2022/08/25 04:55:57;;;;;;;;;;;13.00;99.90;;;;;;5075017;28;19999;-74
2022/08/25 04:58:22;;;;;;;;;;;13.10;99.90;;;;;;5074798;28;20001;-74
2022/08/25 05:00:48;;;;;;;;;;;13.10;99.90;;;;;;5074695;28;19912;-75
2022/08/25 05:03:13;;;;;;;;;;;13.20;99.90;;;;;;5075164;28;19908;-75
2022/08/25 05:05:39;;;;;;;;;;;13.20;99.90;;;;;;5070794;28;19913;-74
2022/08/25 05:08:05;;;;;;;;;;;13.30;99.90;;;;;;5074211;28;19909;-75
2022/08/25 05:10:31;;;;;;;;;;;13.20;99.90;;;;;;5063405;28;19928;-74
2022/08/25 05:12:57;;;;;;;;;;;13.30;99.90;;;;;;5068830;28;19912;-74
2022/08/25 05:18:06;;;;;;;;;;;13.50;99.90;;;;;;5067804;28;20008;-74
2022/08/25 05:20:34;;;;;;;;;;;13.40;99.90;;;;;;5067190;28;19920;-74
2022/08/25 05:23:00;;;;;;;;;;;13.30;99.90;;;;;;5061410;28;19920;-75
2022/08/25 05:25:25;;;;;;;;;;;13.40;99.90;;;;;;5074389;28;19913;-75
2022/08/25 05:27:51;;;;;;;;;;;13.50;99.90;;;;;;5067545;28;19948;-74
2022/08/25 05:30:16;;;;;;;;;;;13.50;99.90;;;;;;5074215;28;20004;-75
2022/08/25 05:32:42;;;;;;;;;;;13.60;99.90;;;;;;5072941;28;19975;-75
2022/08/25 05:35:07;;;;;;;;;;;13.60;99.90;;;;;;5074172;28;19912;-74
2022/08/25 05:37:33;;;;;;;;;;;13.80;99.90;;;;;;5072633;28;19997;-72
2022/08/25 05:39:59;;;;;;;;;;;13.90;99.90;;;;;;5073344;28;19920;-72
2022/08/25 05:42:27;;;;;;;;;;;14.10;99.90;;;;;;5073856;28;19908;-74
2022/08/25 05:44:52;;;;;;;;;;;14.10;99.90;;;;;;5073610;28;19915;-73
2022/08/25 05:47:18;;;;;;;;;;;14.10;99.90;;;;;;5072380;28;19912;-74
2022/08/25 05:49:43;;;;;;;;;;;14.20;99.90;;;;;;5073312;28;20373;-73
2022/08/25 05:52:09;;;;;;;;;;;14.50;99.90;;;;;;5066466;28;19989;-74
2022/08/25 05:54:35;;;;;;;;;;;14.70;99.90;;;;;;5073477;28;19915;-74
2022/08/25 05:57:00;;;;;;;;;;;14.80;99.90;;;;;;5073612;28;19970;-74
2022/08/25 05:59:26;;;;;;;;;;;14.80;99.90;;;;;;5072157;28;19908;-74
2022/08/25 06:04:35;;;;;;;;;;;15.00;99.90;;;;;;5073589;28;19950;-74
2022/08/25 06:07:01;;;;;;;;;;;15.00;99.90;;;;;;5073304;28;19909;-74
2022/08/25 06:09:26;;;;;;;;;;;15.20;99.90;;;;;;5072956;28;19916;-74
2022/08/25 06:11:52;;;;;;;;;;;15.30;99.90;;;;;;5073399;28;19908;-74
2022/08/25 06:14:18;;;;;;;;;;;15.30;99.90;;;;;;5072695;28;19909;-74
2022/08/25 06:16:44;;;;;;;;;;;15.50;99.90;;;;;;5070868;28;19952;-74
2022/08/25 06:19:09;;;;;;;;;;;15.60;99.90;;;;;;5070288;28;20334;-74
2022/08/25 06:21:37;;;;;;;;;;;15.70;99.90;;;;;;5072694;28;20285;-74
2022/08/25 06:24:03;;;;;;;;;;;15.80;99.90;;;;;;5072697;28;19909;-74
2022/08/25 06:26:29;;;;;;;;;;;16.00;99.90;;;;;;5072953;28;19909;-73
2022/08/25 06:28:54;;;;;;;;;;;16.30;99.90;;;;;;5072711;28;19908;-73
2022/08/25 06:31:21;;;;;;;;;;;16.60;99.90;;;;;;5072879;28;20296;-74
2022/08/25 06:33:46;;;;;;;;;;;16.50;99.90;;;;;;5071321;28;19912;-74
2022/08/25 06:36:12;;;;;;;;;;;16.60;99.90;;;;;;5072804;28;20179;-74
2022/08/25 06:38:37;;;;;;;;;;;16.80;99.90;;;;;;5072633;28;19912;-74
2022/08/25 06:41:04;;;;;;;;;;;17.00;99.90;;;;;;5072458;28;19920;-74
2022/08/25 06:43:31;;;;;;;;;;;17.20;99.90;;;;;;5072052;28;20369;-74
2022/08/25 06:45:57;;;;;;;;;;;17.20;99.90;;;;;;5072533;28;20281;-74
2022/08/25 06:48:23;;;;;;;;;;;17.30;99.90;;;;;;5065653;28;19909;-74
2022/08/25 06:50:48;;;;;;;;;;;17.50;99.90;;;;;;5071112;28;20289;-74
2022/08/25 06:53:14;;;;;;;;;;;17.60;99.90;;;;;;5069029;28;20003;-75
2022/08/25 06:55:39;;;;;;;;;;;17.80;99.90;;;;;;5070374;28;19916;-73
2022/08/25 06:58:05;;;;;;;;;;;17.90;99.90;;;;;;5066812;28;19913;-74
2022/08/25 07:00:31;;;;;;;;;;;18.10;99.90;;;;;;5071596;28;19963;-73
2022/08/25 07:02:57;;;;;;;;;;;18.30;99.90;;;;;;5069466;28;20397;-72
2022/08/25 07:05:23;;;;;;;;;;;18.40;99.90;;;;;;5070539;28;20120;-74
2022/08/25 07:07:49;;;;;;;;;;;18.50;99.90;;;;;;5078042;28;19996;-74
2022/08/25 07:10:15;;;;;;;;;;;18.60;99.90;;;;;;5071709;28;19916;-74
2022/08/25 07:12:40;;;;;;;;;;;18.80;99.90;;;;;;5071707;28;19915;-74
2022/08/25 07:15:06;;;;;;;;;;;18.90;99.90;;;;;;5071700;28;19912;-74
2022/08/25 07:17:31;;;;;;;;;;;18.90;99.90;;;;;;5071601;28;20350;-74
2022/08/25 07:19:57;;;;;;;;;;;19.30;99.90;;;;;;5074065;28;20221;-74
2022/08/25 07:22:22;;;;;;;;;;;19.60;99.90;;;;;;5072867;28;20012;-74
2022/08/25 07:24:48;;;;;;;;;;;19.70;99.90;;;;;;5078365;28;20369;-74
2022/08/25 07:27:14;;;;;;;;;;;19.80;99.90;;;;;;5071552;28;19914;-75
2022/08/25 07:29:40;;;;;;;;;;;19.90;99.90;;;;;;5071670;28;19919;-74
2022/08/25 07:32:05;;;;;;;;;;;20.30;99.90;;;;;;5071350;28;20003;-75
2022/08/25 07:37:15;;;;;;;;;;;21.40;99.90;;;;;;5065415;28;19978;-75
2022/08/25 07:39:41;;;;;;;;;;;23.50;99.90;;;;;;5070962;28;20373;-75
2022/08/25 07:42:08;;;;;;;;;;;24.90;99.90;;;;;;5069986;28;19912;-75
2022/08/25 07:44:33;;;;;;;;;;;25.80;98.60;;;;;;5064712;28;20437;-75
2022/08/25 07:46:59;;;;;;;;;;;26.00;97.20;;;;;;5071367;28;19999;-75
2022/08/25 07:49:25;;;;;;;;;;;26.20;96.00;;;;;;5073834;28;19909;-75
2022/08/25 07:51:51;;;;;;;;;;;27.30;92.50;;;;;;5071321;28;19908;-75
2022/08/25 07:54:17;;;;;;;;;;;27.40;91.50;;;;;;5069868;28;19912;-75
2022/08/25 07:56:42;;;;;;;;;;;27.30;90.00;;;;;;5077031;28;19943;-75
2022/08/25 07:59:08;;;;;;;;;;;27.70;89.80;;;;;;5071048;28;19908;-75
2022/08/25 08:01:33;;;;;;;;;;;27.70;87.80;;;;;;5070815;28;19912;-75
2022/08/25 08:03:59;;;;;;;;;;;27.20;89.20;;;;;;5074202;28;19915;-75
2022/08/25 08:06:24;;;;;;;;;;;27.80;88.10;;;;;;5070901;28;19913;-75
2022/08/25 08:08:52;;;;;;;;;;;27.00;90.20;;;;;;5070663;28;19916;-75
2022/08/25 08:11:22;;;;;;;;;;;28.00;86.90;;;;;;5070461;28;19916;-75
2022/08/25 08:13:49;;;;;;;;;;;28.20;83.10;;;;;;5070177;28;20292;-75
2022/08/25 08:16:16;;;;;;;;;;;27.50;84.30;;;;;;5065299;28;19959;-75
2022/08/25 08:18:42;;;;;;;;;;;28.00;84.50;;;;;;5073454;28;19908;-75
2022/08/25 08:21:12;;;;;;;;;;;28.50;82.90;;;;;;5072908;28;20277;-75
2022/08/25 08:23:37;;;;;;;;;;;29.00;81.70;;;;;;5075941;28;19909;-75
2022/08/25 08:26:03;;;;;;;;;;;29.50;79.60;;;;;;5069624;28;19958;-75
2022/08/25 08:28:29;;;;;;;;;;;30.30;76.10;;;;;;5070751;28;19909;-75
2022/08/25 08:30:56;;;;;;;;;;;30.50;76.10;;;;;;5070868;28;19909;-75
2022/08/25 08:33:22;;;;;;;;;;;29.90;73.10;;;;;;5070475;28;19915;-75
2022/08/25 08:35:53;;;;;;;;;;;29.20;74.60;;;;;;5071093;28;20445;-75
2022/08/25 08:38:19;;;;;;;;;;;28.40;77.00;;;;;;5070769;28;19912;-75
2022/08/25 08:42:15;;;;;;;;;;;29.70;77.00;;;;;;5070655;28;20357;-75
2022/08/25 08:43:41;;;;;;;;;;;30.40;73.80;;;;;;5070516;28;20003;-75
2022/08/25 08:46:06;;;;;;;;;;;30.20;72.10;;;;;;5070758;28;19913;-75
2022/08/25 08:48:51;;;;;;;;;;;30.90;71.70;;;;;;5072986;28;20285;-75
2022/08/25 08:51:27;;;;;;;;;;;30.60;70.90;;;;;;5074698;28;19934;-75
2022/08/25 08:53:58;;;;;;;;;;;29.20;74.20;;;;;;5068837;28;19908;-74
2022/08/25 08:56:26;;;;;;;;;;;30.20;73.20;;;;;;5070076;28;20314;-74
2022/08/25 08:58:57;;;;;;;;;;;30.30;69.90;;;;;;5070409;28;20324;-75
2022/08/25 09:01:25;;;;;;;;;;;30.50;70.50;;;;;;5070562;28;19919;-75
2022/08/25 09:03:54;;;;;;;;;;;30.60;68.60;;;;;;5068909;28;19909;-74
2022/08/25 09:06:24;;;;;;;;;;;29.90;72.70;;;;;;5070466;28;20255;-75
2022/08/25 09:08:54;;;;;;;;;;;30.80;70.30;;;;;;5069103;28;19908;-75
2022/08/25 09:11:19;;;;;;;;;;;32.50;65.50;;;;;;5063430;28;20579;-74
2022/08/25 09:14:03;;;;;;;;;;;32.50;66.50;;;;;;5071531;28;19982;-74
2022/08/25 09:19:22;;;;;;;;;;;32.50;61.30;;;;;;5073610;28;19916;-74
2022/08/25 09:21:48;;;;;;;;;;;31.50;66.50;;;;;;5074804;28;19912;-75
2022/08/25 09:24:16;;;;;;;;;;;32.20;65.30;;;;;;5078773;28;19909;-74
2022/08/25 09:27:05;;;;;;;;;;;32.40;64.40;;;;;;5074042;28;19962;-75
2022/08/25 09:29:53;;;;;;;;;;;32.60;65.00;;;;;;5068577;28;19958;-75
2022/08/25 09:32:20;;;;;;;;;;;32.50;64.80;;;;;;5065031;28;19909;-75
2022/08/25 09:34:47;;;;;;;;;;;33.30;61.70;;;;;;5073482;28;20324;-75
2022/08/25 09:37:12;;;;;;;;;;;33.30;62.70;;;;;;5073838;28;19915;-75
2022/08/25 09:39:38;;;;;;;;;;;34.10;61.20;;;;;;5073820;28;19909;-75
2022/08/25 09:42:03;;;;;;;;;;;34.50;57.60;;;;;;5073563;28;20377;-75
2022/08/25 09:44:29;;;;;;;;;;;34.60;58.20;;;;;;5073394;28;20369;-75
2022/08/25 09:47:03;;;;;;;;;;;34.30;59.50;;;;;;5073761;28;20327;-75
2022/08/25 09:49:39;;;;;;;;;;;34.60;56.00;;;;;;5078577;28;19909;-75
2022/08/25 09:52:17;;;;;;;;;;;35.20;55.90;;;;;;5070698;28;20361;-75
2022/08/25 09:54:42;;;;;;;;;;;35.20;54.90;;;;;;5064851;28;19908;-75
2022/08/25 09:57:08;;;;;;;;;;;34.90;58.00;;;;;;5068563;28;19954;-75
2022/08/25 09:59:35;;;;;;;;;;;33.50;57.50;;;;;;5081281;28;19909;-74
2022/08/25 10:02:15;;;;;;;;;;;33.00;59.60;;;;;;5077378;28;19934;-75
2022/08/25 10:04:40;;;;;;;;;;;34.30;56.90;;;;;;5071963;28;19908;-75
2022/08/25 10:07:24;;;;;;;;;;;35.30;54.70;;;;;;5073300;28;19919;-75
2022/08/25 10:09:51;;;;;;;;;;;35.20;54.80;;;;;;5073154;28;19921;-75
2022/08/25 10:12:20;;;;;;;;;;;35.00;56.20;;;;;;5073029;28;19909;-75
2022/08/25 10:14:45;;;;;;;;;;;36.30;54.50;;;;;;5071986;28;20003;-75
2022/08/25 10:17:13;;;;;;;;;;;37.00;51.50;;;;;;5068028;28;20070;-75
2022/08/25 10:19:39;;;;;;;;;;;37.10;50.50;;;;;;5073107;28;19913;-75
2022/08/25 10:22:09;;;;;;;;;;;35.80;52.30;;;;;;5072893;28;19923;-75
2022/08/25 10:24:37;;;;;;;;;;;36.90;52.30;;;;;;5071602;28;19927;-75
2022/08/25 10:27:03;;;;;;;;;;;36.70;50.10;;;;;;5073570;28;20354;-75
2022/08/25 10:29:47;;;;;;;;;;;36.40;50.90;;;;;;5073078;28;19908;-75
2022/08/25 10:32:39;;;;;;;;;;;37.20;50.80;;;;;;5071120;28;20411;-75
2022/08/25 10:35:16;;;;;;;;;;;37.00;48.20;;;;;;5045010;28;19933;-75
2022/08/25 10:37:54;;;;;;;;;;;36.30;51.70;;;;;;5068103;28;19999;-75
2022/08/25 10:40:22;;;;;;;;;;;36.30;50.60;;;;;;5072694;28;19909;-75
2022/08/25 10:42:54;;;;;;;;;;;37.00;50.70;;;;;;5072977;28;20041;-75
2022/08/25 10:48:12;;;;;;;;;;;36.30;51.60;;;;;;5068020;28;20385;-74
2022/08/25 10:50:43;;;;;;;;;;;36.40;51.20;;;;;;5073039;28;19908;-74
2022/08/25 10:53:09;;;;;;;;;;;37.00;48.60;;;;;;5072689;28;19913;-74
2022/08/25 10:55:42;;;;;;;;;;;37.10;49.10;;;;;;5068400;28;20062;-74
2022/08/25 10:58:16;;;;;;;;;;;36.60;46.70;;;;;;5074592;28;19931;-74
2022/08/25 11:01:01;;;;;;;;;;;37.50;47.90;;;;;;5072803;28;20262;-74
2022/08/25 11:03:36;;;;;;;;;;;36.40;50.60;;;;;;5055491;28;19912;-74
2022/08/25 11:06:04;;;;;;;;;;;33.70;53.20;;;;;;5066331;28;20377;-74
2022/08/25 11:08:41;;;;;;;;;;;31.80;60.20;;;;;;5068641;28;19908;-74
2022/08/25 11:11:23;;;;;;;;;;;34.00;52.80;;;;;;5074574;28;19924;-74
2022/08/25 11:13:51;;;;;;;;;;;35.60;54.10;;;;;;5069926;28;19952;-74
2022/08/25 11:16:20;;;;;;;;;;;35.00;51.80;;;;;;5065093;28;19916;-74
2022/08/25 11:18:57;;;;;;;;;;;35.50;51.10;;;;;;5072208;28;19908;-74
2022/08/25 11:21:35;;;;;;;;;;;36.40;49.50;;;;;;5073639;28;19912;-74
2022/08/25 11:24:05;;;;;;;;;;;36.30;48.20;;;;;;5065756;28;19908;-75
2022/08/25 11:26:33;;;;;;;;;;;35.90;49.00;;;;;;5069668;28;20591;-74
2022/08/25 11:29:01;;;;;;;;;;;37.30;48.00;;;;;;5066473;28;19909;-74
2022/08/25 11:31:27;;;;;;;;;;;37.20;45.80;;;;;;5071209;28;20373;-74
2022/08/25 11:33:53;;;;;;;;;;;32.80;53.20;;;;;;5071177;28;20038;-74
2022/08/25 11:36:19;;;;;;;;;;;34.60;51.00;;;;;;5066589;28;19917;-74
2022/08/25 11:38:44;;;;;;;;;;;35.30;48.70;;;;;;5068400;28;20334;-74
2022/08/25 11:41:10;;;;;;;;;;;31.50;56.40;;;;;;5071079;28;19912;-74
2022/08/25 11:43:38;;;;;;;;;;;30.70;60.50;;;;;;5068142;28;20011;-74
2022/08/25 11:46:21;;;;;;;;;;;35.00;52.10;;;;;;5064633;28;19991;-74
2022/08/25 11:49:01;;;;;;;;;;;36.00;48.40;;;;;;5070999;28;19912;-73
2022/08/25 11:51:30;;;;;;;;;;;36.40;48.30;;;;;;5071160;28;19912;-74
2022/08/25 11:54:25;;;;;;;;;;;36.40;46.80;;;;;;5071408;28;19909;-74
2022/08/25 11:56:52;;;;;;;;;;;34.90;49.10;;;;;;5043356;28;19924;-74
2022/08/25 11:59:36;;;;;;;;;;;35.90;49.20;;;;;;5064891;28;19909;-74
2022/08/25 12:02:02;;;;;;;;;;;34.20;52.20;;;;;;5069492;28;19913;-75
2022/08/25 12:04:32;;;;;;;;;;;37.20;45.90;;;;;;5070180;28;19965;-74
2022/08/25 12:07:09;;;;;;;;;;;37.40;45.20;;;;;;5071113;28;20255;-75
2022/08/25 12:09:47;;;;;;;;;;;36.70;45.10;;;;;;5060105;28;19998;-75
2022/08/25 12:12:34;;;;;;;;;;;31.60;54.50;;;;;;5070451;28;19994;-75
2022/08/25 12:15:17;;;;;;;;;;;31.90;55.30;;;;;;5067176;28;19908;-74
2022/08/25 12:17:43;;;;;;;;;;;35.70;47.90;;;;;;5070312;28;20012;-74
2022/08/25 12:20:09;;;;;;;;;;;36.90;46.00;;;;;;5069549;28;19943;-75
2022/08/25 12:22:35;;;;;;;;;;;38.10;43.60;;;;;;5070781;28;19913;-74
2022/08/25 12:25:02;;;;;;;;;;;38.20;44.10;;;;;;5070328;28;19909;-74
2022/08/25 12:27:46;;;;;;;;;;;37.50;44.90;;;;;;5067242;28;19916;-74
2022/08/25 12:30:12;;;;;;;;;;;37.90;44.40;;;;;;5071557;28;20401;-74
2022/08/25 12:32:55;;;;;;;;;;;36.90;44.20;;;;;;5070502;28;20003;-74
2022/08/25 12:35:24;;;;;;;;;;;37.00;45.00;;;;;;5065381;28;20366;-74
2022/08/25 12:38:00;;;;;;;;;;;36.70;44.30;;;;;;5070749;28;20331;-74
2022/08/25 12:40:28;;;;;;;;;;;35.30;46.30;;;;;;5070970;28;19909;-74
2022/08/25 12:43:23;;;;;;;;;;;34.80;48.00;;;;;;5068881;28;19963;-74
2022/08/25 12:45:50;;;;;;;;;;;34.00;49.50;;;;;;5054878;28;19909;-74
2022/08/25 12:48:25;;;;;;;;;;;30.80;57.30;;;;;;5066395;28;19909;-74
2022/08/25 12:50:59;;;;;;;;;;;29.70;59.20;;;;;;5068904;28;20007;-74
2022/08/25 12:53:39;;;;;;;;;;;29.60;60.10;;;;;;5074495;28;20370;-75
2022/08/25 12:56:06;;;;;;;;;;;29.50;59.60;;;;;;5074049;28;19915;-74
2022/08/25 12:58:34;;;;;;;;;;;29.20;62.20;;;;;;5075163;28;19913;-74
2022/08/25 13:01:09;;;;;;;;;;;29.30;61.10;;;;;;5077461;28;19918;-74
2022/08/25 13:03:45;;;;;;;;;;;29.30;61.20;;;;;;5074302;28;19944;-74
2022/08/25 13:06:24;;;;;;;;;;;29.30;63.90;;;;;;5074432;28;19915;-74
2022/08/25 13:08:53;;;;;;;;;;;29.30;59.90;;;;;;5069269;28;19909;-74
2022/08/25 13:11:23;;;;;;;;;;;29.20;61.60;;;;;;5070098;28;19922;-74
2022/08/25 13:13:51;;;;;;;;;;;28.80;60.90;;;;;;5068557;28;19908;-74
2022/08/25 13:16:22;;;;;;;;;;;28.80;61.90;;;;;;5074139;28;19947;-74
2022/08/25 13:18:48;;;;;;;;;;;29.10;62.40;;;;;;5073111;28;19955;-74
2022/08/25 13:21:32;;;;;;;;;;;29.20;62.50;;;;;;5066907;28;19944;-74
2022/08/25 13:23:58;;;;;;;;;;;28.60;61.80;;;;;;5073869;28;19969;-74
2022/08/25 13:26:25;;;;;;;;;;;28.60;62.40;;;;;;5071739;28;20357;-74
2022/08/25 13:28:59;;;;;;;;;;;28.70;62.50;;;;;;5076219;28;19916;-74
2022/08/25 13:31:28;;;;;;;;;;;28.60;64.10;;;;;;5073750;28;19909;-74
2022/08/25 13:33:54;;;;;;;;;;;29.40;62.90;;;;;;5073640;28;20281;-74
2022/08/25 13:39:20;;;;;;;;;;;29.30;59.90;;;;;;5019012;28;20027;-74
2022/08/25 13:41:47;;;;;;;;;;;29.10;62.10;;;;;;5073604;28;19912;-74
2022/08/25 13:44:13;;;;;;;;;;;29.20;62.00;;;;;;5073055;28;19909;-74
2022/08/25 13:46:38;;;;;;;;;;;29.00;64.30;;;;;;5069636;28;20269;-74
2022/08/25 13:49:05;;;;;;;;;;;29.00;63.60;;;;;;5073196;28;20003;-74
2022/08/25 13:51:30;;;;;;;;;;;28.60;63.20;;;;;;5073361;28;19909;-74
2022/08/25 13:53:58;;;;;;;;;;;29.00;63.10;;;;;;5073151;28;19919;-74
2022/08/25 13:56:28;;;;;;;;;;;29.10;63.30;;;;;;5073707;28;20262;-74
2022/08/25 13:58:55;;;;;;;;;;;29.10;61.30;;;;;;5068801;28;19965;-74
2022/08/25 14:01:23;;;;;;;;;;;28.90;62.20;;;;;;5077563;28;20027;-74
2022/08/25 14:03:48;;;;;;;;;;;29.00;63.20;;;;;;5068007;28;19908;-74
2022/08/25 14:06:14;;;;;;;;;;;29.50;61.30;;;;;;5073252;28;19953;-74
2022/08/25 14:08:44;;;;;;;;;;;32.60;55.10;;;;;;5070094;28;19915;-74
2022/08/25 14:11:12;;;;;;;;;;;34.60;50.30;;;;;;5073967;28;20009;-74
2022/08/25 14:13:39;;;;;;;;;;;36.20;47.80;;;;;;5076224;28;19915;-75
2022/08/25 14:16:06;;;;;;;;;;;37.00;45.60;;;;;;5073382;28;20354;-75
2022/08/25 14:18:32;;;;;;;;;;;37.10;44.20;;;;;;5072847;28;20007;-74
2022/08/25 14:20:58;;;;;;;;;;;36.30;46.20;;;;;;5072937;28;20015;-75
2022/08/25 14:23:26;;;;;;;;;;;36.20;45.90;;;;;;5072868;28;19909;-74
2022/08/25 14:25:53;;;;;;;;;;;35.60;46.60;;;;;;5072652;28;20358;-74
2022/08/25 14:28:20;;;;;;;;;;;35.70;46.70;;;;;;5067361;28;19916;-75
2022/08/25 14:30:50;;;;;;;;;;;36.70;44.40;;;;;;5077644;28;20295;-74
2022/08/25 14:33:18;;;;;;;;;;;36.00;45.10;;;;;;5071817;28;19909;-74
2022/08/25 14:35:45;;;;;;;;;;;35.90;45.90;;;;;;5072684;28;19995;-74
2022/08/25 14:38:11;;;;;;;;;;;36.60;44.30;;;;;;5072701;28;19908;-74
2022/08/25 14:40:38;;;;;;;;;;;37.20;44.00;;;;;;5072424;28;19924;-75